Time;durP1;ratioP1;P1;durP2;ratioP2;P2;SDS_P1;SDS_P2;PMS_P1;PMS_P2;Temp;Humidity;BMP_temperature;BMP_pressure;BME280_temperature;BME280_humidity;BME280_pressure;Samples;Min_cycle;Max_cycle;Signal;HPM_P1;HPM_P2
2023/03/21 00:00:21;;;;;;;22.70;10.25;;;8.70;99.90;;;;;;5027326;28;20139;-69
2023/03/21 00:02:47;;;;;;;23.15;10.27;;;8.70;99.90;;;;;;5037098;28;20049;-67
2023/03/21 00:05:12;;;;;;;23.02;9.52;;;8.70;99.90;;;;;;5042315;28;20116;-66
2023/03/21 00:07:38;;;;;;;22.40;9.75;;;8.80;99.90;;;;;;5033630;28;20039;-67
2023/03/21 00:10:04;;;;;;;21.30;8.80;;;8.80;99.90;;;;;;5012081;28;20456;-67
2023/03/21 00:12:31;;;;;;;22.13;9.10;;;8.80;99.90;;;;;;5044383;28;20522;-68
2023/03/21 00:15:03;;;;;;;21.45;9.07;;;8.80;99.90;;;;;;5034354;28;20054;-68
2023/03/21 00:17:31;;;;;;;19.67;8.35;;;8.80;99.90;;;;;;5033851;28;20489;-67
2023/03/21 00:19:58;;;;;;;20.58;8.57;;;8.80;99.90;;;;;;5015543;28;20183;-67
2023/03/21 00:22:24;;;;;;;20.80;9.18;;;8.90;99.90;;;;;;5038420;28;20132;-68
2023/03/21 00:24:51;;;;;;;23.17;8.68;;;8.80;99.90;;;;;;5036560;28;20043;-67
2023/03/21 00:27:18;;;;;;;20.52;8.52;;;8.80;99.90;;;;;;5040663;28;20056;-66
2023/03/21 00:29:44;;;;;;;20.83;8.57;;;8.80;99.90;;;;;;5032466;28;20059;-67
2023/03/21 00:32:10;;;;;;;22.15;8.35;;;8.90;99.90;;;;;;5035751;28;20186;-69
2023/03/21 00:34:37;;;;;;;24.42;10.02;;;8.90;99.90;;;;;;5034994;28;20037;-66
2023/03/21 00:37:03;;;;;;;22.90;8.75;;;8.90;99.90;;;;;;5030720;28;20045;-67
2023/03/21 00:39:28;;;;;;;25.02;9.30;;;8.90;99.90;;;;;;5035539;28;20420;-68
2023/03/21 00:41:54;;;;;;;31.58;10.80;;;8.90;99.90;;;;;;5046815;28;20041;-67
2023/03/21 00:44:20;;;;;;;26.95;9.63;;;8.90;99.90;;;;;;5034754;28;20047;-67
2023/03/21 00:46:45;;;;;;;30.63;10.43;;;8.90;99.90;;;;;;5036261;28;20048;-66
2023/03/21 00:49:11;;;;;;;25.27;10.20;;;8.90;99.90;;;;;;5039390;28;20037;-68
2023/03/21 00:51:37;;;;;;;27.00;9.77;;;8.90;99.90;;;;;;5033006;28;20041;-68
2023/03/21 00:54:04;;;;;;;28.75;10.52;;;9.00;99.90;;;;;;5046880;28;20128;-68
2023/03/21 00:56:30;;;;;;;26.15;9.82;;;9.00;99.90;;;;;;5039575;28;20042;-67
2023/03/21 00:58:56;;;;;;;22.85;9.70;;;8.90;99.90;;;;;;5042597;28;20401;-67
2023/03/21 01:01:21;;;;;;;26.58;10.80;;;9.00;99.90;;;;;;5036919;28;20053;-68
2023/03/21 01:03:49;;;;;;;23.92;9.35;;;9.00;99.90;;;;;;5038248;28;20041;-68
2023/03/21 01:06:18;;;;;;;25.58;9.82;;;9.00;99.90;;;;;;5043190;28;20167;-67
2023/03/21 01:08:44;;;;;;;27.20;9.48;;;9.00;99.90;;;;;;5042993;28;20120;-68
2023/03/21 01:11:13;;;;;;;27.70;11.23;;;9.00;99.90;;;;;;5025090;28;20408;-66
2023/03/21 01:13:39;;;;;;;24.75;9.35;;;9.00;99.90;;;;;;5026862;28;20049;-69
2023/03/21 01:16:07;;;;;;;26.80;10.13;;;9.00;99.90;;;;;;5032360;28;20049;-69
2023/03/21 01:18:34;;;;;;;27.90;10.65;;;9.00;99.90;;;;;;5039502;28;20084;-68
2023/03/21 01:21:01;;;;;;;25.77;9.57;;;9.00;99.90;;;;;;5036422;28;20075;-67
2023/03/21 01:23:28;;;;;;;23.83;9.23;;;9.00;99.90;;;;;;5037040;28;20098;-67
2023/03/21 01:25:55;;;;;;;23.05;9.27;;;9.00;99.90;;;;;;5037713;28;20049;-67
2023/03/21 01:28:24;;;;;;;20.92;8.25;;;9.00;99.90;;;;;;5036380;28;20029;-69
2023/03/21 01:30:50;;;;;;;24.63;9.95;;;9.00;99.90;;;;;;5032431;28;20131;-68
2023/03/21 01:33:18;;;;;;;23.90;9.32;;;9.00;99.90;;;;;;5045013;28;20037;-68
2023/03/21 01:35:44;;;;;;;19.58;7.68;;;9.00;99.90;;;;;;5044705;28;20044;-68
2023/03/21 01:38:10;;;;;;;22.48;8.85;;;9.00;99.90;;;;;;5026942;28;20995;-69
2023/03/21 01:40:37;;;;;;;24.52;8.52;;;9.00;99.90;;;;;;5031754;28;20037;-67
2023/03/21 01:43:04;;;;;;;21.02;8.98;;;9.00;99.90;;;;;;5038983;28;20068;-69
2023/03/21 01:46:07;;;;;;;25.52;9.05;;;9.00;99.90;;;;;;5031610;28;20045;-69
2023/03/21 01:48:34;;;;;;;20.52;8.38;;;9.00;99.90;;;;;;5032669;28;20401;-67
2023/03/21 01:51:00;;;;;;;15.70;7.18;;;9.00;99.90;;;;;;5036784;28;20590;-67
2023/03/21 01:53:29;;;;;;;20.80;8.27;;;9.00;99.90;;;;;;5033707;28;20130;-67
2023/03/21 01:55:59;;;;;;;17.58;7.93;;;9.00;99.90;;;;;;5040660;28;20405;-67
2023/03/21 01:58:25;;;;;;;18.95;7.28;;;9.00;99.90;;;;;;5029661;28;20045;-69
2023/03/21 02:00:52;;;;;;;22.02;8.18;;;9.00;99.90;;;;;;5036893;28;20067;-68
2023/03/21 02:03:18;;;;;;;17.48;7.60;;;9.00;99.90;;;;;;5014572;28;20029;-68
2023/03/21 02:05:50;;;;;;;20.38;7.35;;;9.10;99.90;;;;;;5036839;28;20049;-68
2023/03/21 02:08:15;;;;;;;19.38;7.45;;;9.00;99.90;;;;;;5047785;28;20043;-68
2023/03/21 02:10:44;;;;;;;19.25;7.60;;;9.10;99.90;;;;;;5025474;28;20032;-67
2023/03/21 02:13:10;;;;;;;19.38;7.88;;;9.00;99.90;;;;;;5018041;28;20034;-67
2023/03/21 02:15:43;;;;;;;20.10;8.18;;;9.00;99.90;;;;;;5029488;28;20044;-68
2023/03/21 02:18:15;;;;;;;21.58;8.18;;;9.10;99.90;;;;;;5036400;28;20044;-68
2023/03/21 02:21:12;;;;;;;19.67;8.63;;;9.10;99.90;;;;;;5035682;28;20056;-68
2023/03/21 02:23:56;;;;;;;21.23;8.40;;;9.10;99.90;;;;;;5033927;28;20064;-68
2023/03/21 02:26:44;;;;;;;24.75;9.63;;;9.10;99.90;;;;;;5028940;28;20068;-67
2023/03/21 02:29:33;;;;;;;19.13;7.50;;;9.10;99.90;;;;;;5008963;28;20087;-69
2023/03/21 02:32:04;;;;;;;21.98;9.27;;;9.10;99.90;;;;;;5027815;28;20049;-67
2023/03/21 02:34:59;;;;;;;20.45;8.30;;;9.10;99.90;;;;;;5046170;28;20128;-67
2023/03/21 02:37:34;;;;;;;19.77;8.27;;;9.10;99.90;;;;;;5047832;28;20045;-68
2023/03/21 02:40:23;;;;;;;20.88;8.50;;;9.10;99.90;;;;;;5034571;28;20048;-67
2023/03/21 02:43:03;;;;;;;24.00;9.83;;;9.10;99.90;;;;;;5037727;28;20417;-67
2023/03/21 02:45:49;;;;;;;19.05;7.68;;;9.10;99.90;;;;;;5036160;28;20041;-67
2023/03/21 02:48:40;;;;;;;21.50;8.80;;;9.10;99.90;;;;;;5034297;28;20067;-68
2023/03/21 02:51:08;;;;;;;21.20;8.02;;;9.10;99.90;;;;;;5025996;28;20048;-67
2023/03/21 02:53:39;;;;;;;19.10;8.18;;;9.10;99.90;;;;;;5047857;28;20049;-69
2023/03/21 02:56:09;;;;;;;;;;;9.00;99.90;;;;;;5037992;28;20056;-68
2023/03/21 02:58:37;;;;;;;18.58;7.63;;;9.00;99.90;;;;;;5031899;28;19921;-68
2023/03/21 03:01:05;;;;;;;22.25;8.75;;;9.00;99.90;;;;;;5034287;28;20485;-67
2023/03/21 03:03:31;;;;;;;21.35;8.18;;;9.10;99.90;;;;;;5017013;28;20583;-68
2023/03/21 03:05:58;;;;;;;22.30;8.65;;;9.10;99.90;;;;;;5042575;28;20094;-69
2023/03/21 03:08:39;;;;;;;18.83;8.05;;;9.10;99.90;;;;;;5043810;28;20040;-66
2023/03/21 03:11:19;;;;;;;20.40;8.32;;;9.10;99.90;;;;;;5015562;28;20044;-66
2023/03/21 03:14:09;;;;;;;17.55;8.27;;;9.10;99.90;;;;;;5036830;28;20156;-66
2023/03/21 03:16:52;;;;;;;19.10;8.50;;;9.10;99.90;;;;;;5034977;28;20044;-67
2023/03/21 03:19:45;;;;;;;20.13;8.25;;;9.00;99.90;;;;;;5038575;28;20037;-66
2023/03/21 03:22:24;;;;;;;22.17;8.45;;;9.00;99.90;;;;;;5044453;28;20076;-66
2023/03/21 03:25:10;;;;;;;18.15;7.65;;;9.00;99.90;;;;;;5045285;28;20401;-66
2023/03/21 03:27:40;;;;;;;16.77;7.35;;;9.10;99.90;;;;;;5039009;28;20041;-66
2023/03/21 03:30:08;;;;;;;18.77;7.63;;;9.10;99.90;;;;;;5029482;28;20424;-67
2023/03/21 03:32:43;;;;;;;16.55;7.60;;;9.10;99.90;;;;;;5036725;28;20119;-67
2023/03/21 03:35:12;;;;;;;16.17;7.47;;;9.10;99.90;;;;;;5036622;28;20036;-66
2023/03/21 03:37:39;;;;;;;16.88;7.07;;;9.10;99.90;;;;;;5040026;28;20409;-66
2023/03/21 03:40:07;;;;;;;17.10;6.85;;;9.10;99.90;;;;;;5043647;28;20048;-66
2023/03/21 03:42:42;;;;;;;18.55;7.45;;;9.10;99.90;;;;;;5044707;28;20439;-66
2023/03/21 03:45:09;;;;;;;19.67;7.18;;;9.10;99.90;;;;;;5029610;28;20041;-66
2023/03/21 03:48:03;;;;;;;16.92;6.40;;;9.10;99.90;;;;;;5032824;28;20041;-66
2023/03/21 03:50:46;;;;;;;15.82;7.50;;;9.10;99.90;;;;;;5040527;28;20045;-66
2023/03/21 03:54:01;;;;;;;19.45;7.18;;;9.10;99.90;;;;;;5039142;28;20504;-66
2023/03/21 03:56:28;;;;;;;17.63;7.00;;;9.10;99.90;;;;;;4996005;28;20038;-66
2023/03/21 03:58:55;;;;;;;16.85;7.78;;;9.10;99.90;;;;;;5004131;28;20041;-66
2023/03/21 04:01:21;;;;;;;16.90;6.93;;;9.10;99.90;;;;;;5021394;28;20044;-67
2023/03/21 04:03:50;;;;;;;15.73;5.95;;;9.00;99.90;;;;;;5028438;28;20465;-67
2023/03/21 04:06:17;;;;;;;17.35;6.43;;;9.10;99.90;;;;;;5027878;28;20041;-67
2023/03/21 04:08:43;;;;;;;14.02;5.90;;;9.10;99.90;;;;;;5032939;28;20057;-66
2023/03/21 04:11:12;;;;;;;14.63;6.00;;;9.00;99.90;;;;;;5041116;28;20484;-66
2023/03/21 04:13:37;;;;;;;16.38;6.53;;;9.10;99.90;;;;;;5046726;28;20120;-66
2023/03/21 04:16:03;;;;;;;17.70;7.03;;;9.00;99.90;;;;;;5028893;28;20094;-67
2023/03/21 04:18:29;;;;;;;17.63;6.88;;;9.10;99.90;;;;;;5021861;28;20489;-66
2023/03/21 04:20:55;;;;;;;14.38;5.75;;;9.00;99.90;;;;;;5035267;28;20052;-66
2023/03/21 04:23:22;;;;;;;14.32;6.40;;;9.10;99.90;;;;;;5040510;28;20140;-67
2023/03/21 04:25:47;;;;;;;15.15;6.45;;;9.00;99.90;;;;;;5043203;28;20060;-66
2023/03/21 04:28:13;;;;;;;15.82;6.13;;;9.00;99.90;;;;;;5027892;28;20045;-68
2023/03/21 04:30:40;;;;;;;14.23;5.97;;;9.00;99.90;;;;;;5032868;28;22015;-66
2023/03/21 04:33:06;;;;;;;14.65;6.15;;;9.00;99.90;;;;;;5044672;28;20048;-66
2023/03/21 04:35:33;;;;;;;15.70;6.63;;;9.00;99.90;;;;;;5045353;28;20045;-66
2023/03/21 04:37:58;;;;;;;16.90;7.22;;;9.00;99.90;;;;;;5045759;28;20044;-67
2023/03/21 04:40:24;;;;;;;16.20;6.47;;;9.00;99.90;;;;;;5049779;28;20037;-66
2023/03/21 04:42:50;;;;;;;14.65;6.45;;;9.00;99.90;;;;;;5050350;28;20146;-66
2023/03/21 04:45:16;;;;;;;18.17;7.65;;;9.00;99.90;;;;;;5041604;28;20044;-66
2023/03/21 04:47:41;;;;;;;16.65;7.47;;;9.00;99.90;;;;;;5048826;28;20098;-67
2023/03/21 04:50:09;;;;;;;16.50;6.60;;;9.00;99.90;;;;;;5041833;28;20033;-66
2023/03/21 04:52:35;;;;;;;17.42;6.93;;;9.00;99.90;;;;;;5042603;28;20037;-66
2023/03/21 04:55:01;;;;;;;14.38;6.55;;;9.00;99.90;;;;;;5039689;28;20033;-66
2023/03/21 04:57:26;;;;;;;15.07;7.22;;;9.00;99.90;;;;;;5039999;28;20523;-67
2023/03/21 04:59:52;;;;;;;14.63;6.65;;;9.00;99.90;;;;;;5043202;28;20485;-67
2023/03/21 05:02:17;;;;;;;15.00;5.95;;;9.00;99.90;;;;;;5041460;28;20041;-66
2023/03/21 05:04:43;;;;;;;16.33;5.95;;;9.00;99.90;;;;;;5014761;28;20037;-68
2023/03/21 05:07:09;;;;;;;16.38;7.15;;;9.00;99.90;;;;;;5013969;28;20091;-67
2023/03/21 05:09:35;;;;;;;15.02;7.07;;;9.00;99.90;;;;;;5046154;28;20131;-66
2023/03/21 05:12:00;;;;;;;15.30;7.03;;;9.00;99.90;;;;;;5046941;28;20045;-67
2023/03/21 05:14:26;;;;;;;14.93;6.32;;;9.00;99.90;;;;;;5037162;28;20049;-66
2023/03/21 05:16:53;;;;;;;15.55;6.68;;;9.00;99.90;;;;;;5043379;28;20069;-67
2023/03/21 05:19:21;;;;;;;15.35;6.53;;;9.00;99.90;;;;;;5034587;28;20045;-67
2023/03/21 05:21:47;;;;;;;17.75;6.93;;;8.90;99.90;;;;;;5043321;28;20116;-67
2023/03/21 05:24:15;;;;;;;18.42;8.45;;;9.00;99.90;;;;;;5039400;28;20489;-67
2023/03/21 05:26:42;;;;;;;17.92;7.43;;;9.00;99.90;;;;;;5016652;28;20474;-69
2023/03/21 05:29:09;;;;;;;14.38;6.65;;;8.90;99.90;;;;;;5016662;28;20369;-66
2023/03/21 05:31:35;;;;;;;14.32;6.38;;;9.00;99.90;;;;;;5037758;28;20355;-67
2023/03/21 05:34:01;;;;;;;17.67;7.28;;;8.90;99.90;;;;;;5014140;28;20060;-67
2023/03/21 05:36:27;;;;;;;21.65;8.68;;;9.00;99.90;;;;;;5035028;28;20150;-67
2023/03/21 05:38:53;;;;;;;20.60;8.35;;;8.90;99.90;;;;;;5046805;28;20128;-68
2023/03/21 05:41:20;;;;;;;17.27;8.00;;;8.90;99.90;;;;;;5016191;28;20029;-68
2023/03/21 05:43:45;;;;;;;17.27;8.40;;;9.00;99.90;;;;;;5037868;28;20079;-66
2023/03/21 05:46:11;;;;;;;19.58;8.38;;;8.90;99.90;;;;;;5040107;28;20442;-68
2023/03/21 05:48:37;;;;;;;17.55;7.78;;;8.90;99.90;;;;;;5042344;28;20065;-68
2023/03/21 05:51:04;;;;;;;18.95;7.93;;;8.90;99.90;;;;;;5040036;28;20033;-67
2023/03/21 05:53:30;;;;;;;20.25;8.40;;;8.90;99.90;;;;;;5021924;28;20052;-70
2023/03/21 05:55:56;;;;;;;20.30;9.05;;;8.90;99.90;;;;;;5043075;28;20124;-68
2023/03/21 05:58:22;;;;;;;18.13;7.78;;;8.90;99.90;;;;;;5035188;28;20032;-69
2023/03/21 06:00:48;;;;;;;18.95;8.18;;;8.90;99.90;;;;;;5036120;28;20056;-68
2023/03/21 06:03:14;;;;;;;20.25;8.20;;;9.00;99.90;;;;;;5042426;28;20059;-68
2023/03/21 06:05:39;;;;;;;15.77;8.23;;;8.90;99.90;;;;;;5032510;28;20045;-68
2023/03/21 06:08:05;;;;;;;19.90;8.77;;;8.90;99.90;;;;;;5038483;28;20538;-68
2023/03/21 06:10:31;;;;;;;18.52;8.60;;;9.00;99.90;;;;;;5011598;28;20438;-70
2023/03/21 06:12:56;;;;;;;21.02;9.85;;;8.90;99.90;;;;;;5016528;28;20366;-69
2023/03/21 06:15:22;;;;;;;23.90;10.00;;;8.90;99.90;;;;;;5035507;28;20041;-69
2023/03/21 06:17:47;;;;;;;22.63;10.40;;;8.90;99.90;;;;;;5033877;28;20036;-68
2023/03/21 06:20:13;;;;;;;20.17;9.57;;;9.00;99.90;;;;;;5040837;28;20065;-67
2023/03/21 06:22:39;;;;;;;24.70;10.77;;;8.90;99.90;;;;;;5036517;28;20037;-71
2023/03/21 06:25:06;;;;;;;23.58;9.80;;;8.90;99.90;;;;;;5040157;28;20032;-68
2023/03/21 06:27:32;;;;;;;22.85;10.30;;;8.90;99.90;;;;;;5039266;28;20033;-67
2023/03/21 06:29:58;;;;;;;22.92;10.73;;;8.90;99.90;;;;;;5031616;28;21355;-67
2023/03/21 06:32:24;;;;;;;23.80;11.52;;;8.90;99.90;;;;;;5030675;28;20153;-67
2023/03/21 06:34:50;;;;;;;24.73;11.05;;;8.90;99.90;;;;;;5009886;28;20037;-67
2023/03/21 06:37:16;;;;;;;24.95;10.45;;;8.90;99.90;;;;;;5033874;28;20055;-67
2023/03/21 06:39:42;;;;;;;23.85;11.05;;;8.90;99.90;;;;;;5031284;28;20037;-69
2023/03/21 06:42:07;;;;;;;27.45;11.07;;;8.90;99.90;;;;;;5033302;28;20081;-67
2023/03/21 06:44:33;;;;;;;24.98;10.38;;;8.90;99.90;;;;;;5040575;28;20061;-68
2023/03/21 06:46:59;;;;;;;25.42;11.10;;;8.90;99.90;;;;;;5042574;28;20052;-67
2023/03/21 06:49:26;;;;;;;23.60;10.35;;;8.90;99.90;;;;;;5036093;28;20037;-69
2023/03/21 06:51:51;;;;;;;23.98;10.80;;;9.00;99.90;;;;;;5021553;28;20033;-70
2023/03/21 06:54:17;;;;;;;22.20;9.85;;;9.00;99.90;;;;;;5034614;28;20715;-69
2023/03/21 06:56:44;;;;;;;27.00;10.95;;;9.00;99.90;;;;;;5038433;28;20037;-69
2023/03/21 06:59:09;;;;;;;25.25;10.43;;;9.00;99.90;;;;;;5031254;28;20120;-68
2023/03/21 07:01:35;;;;;;;22.52;9.35;;;9.00;99.90;;;;;;5022116;28;20136;-68
2023/03/21 07:04:01;;;;;;;20.77;10.48;;;9.00;99.90;;;;;;5037303;28;20080;-68
2023/03/21 07:06:26;;;;;;;21.88;10.55;;;9.00;99.90;;;;;;5032434;28;20037;-68
2023/03/21 07:08:53;;;;;;;20.13;9.23;;;9.00;99.90;;;;;;5036587;28;20033;-68
2023/03/21 07:11:19;;;;;;;23.88;10.10;;;9.00;99.90;;;;;;5018126;28;21007;-68
2023/03/21 07:13:45;;;;;;;22.08;10.23;;;9.00;99.90;;;;;;5015847;28;20045;-67
2023/03/21 07:16:11;;;;;;;24.30;9.82;;;9.10;99.90;;;;;;5032128;28;20059;-68
2023/03/21 07:18:37;;;;;;;17.88;8.45;;;9.10;99.90;;;;;;5044599;28;20502;-70
2023/03/21 07:21:03;;;;;;;20.60;9.43;;;9.10;99.90;;;;;;5043029;28;20056;-68
2023/03/21 07:23:28;;;;;;;21.25;8.75;;;9.10;99.90;;;;;;5045989;28;20048;-68
2023/03/21 07:25:55;;;;;;;18.75;9.10;;;9.10;99.90;;;;;;5033303;28;20041;-66
2023/03/21 07:28:22;;;;;;;20.42;8.40;;;9.10;99.90;;;;;;5040815;28;20033;-67
2023/03/21 07:30:56;;;;;;;18.42;8.48;;;9.20;99.90;;;;;;5039793;28;20080;-70
2023/03/21 07:33:22;;;;;;;18.52;7.45;;;9.20;99.90;;;;;;5034900;28;20128;-68
2023/03/21 07:35:50;;;;;;;15.65;6.60;;;9.20;99.90;;;;;;5038895;28;20048;-68
2023/03/21 07:38:16;;;;;;;17.08;7.45;;;9.20;99.90;;;;;;5050125;28;20550;-69
2023/03/21 07:40:42;;;;;;;16.95;7.13;;;9.10;99.90;;;;;;5035838;28;20140;-68
2023/03/21 07:43:08;;;;;;;14.63;6.53;;;9.20;99.90;;;;;;5041315;28;20029;-70
2023/03/21 07:45:34;;;;;;;15.25;6.60;;;9.20;99.90;;;;;;5044935;28;20041;-68
2023/03/21 07:48:00;;;;;;;12.55;6.50;;;9.30;99.90;;;;;;5042730;28;20077;-66
2023/03/21 07:50:25;;;;;;;12.90;6.15;;;9.30;99.90;;;;;;5046480;28;20037;-68
2023/03/21 07:52:51;;;;;;;10.80;5.45;;;9.30;99.90;;;;;;5049728;28;20044;-70
2023/03/21 07:55:16;;;;;;;14.98;6.53;;;9.20;99.90;;;;;;5053018;28;20079;-70
2023/03/21 07:57:42;;;;;;;13.75;6.55;;;9.30;99.90;;;;;;5037001;28;20037;-71
2023/03/21 08:00:09;;;;;;;10.80;5.78;;;9.20;99.90;;;;;;5039276;28;20543;-68
2023/03/21 08:02:35;;;;;;;10.38;5.43;;;9.20;99.90;;;;;;5027177;28;20048;-71
2023/03/21 08:05:02;;;;;;;12.15;5.90;;;9.30;99.90;;;;;;5043375;28;20043;-69
2023/03/21 08:07:29;;;;;;;13.60;6.20;;;9.20;99.90;;;;;;5042817;28;20128;-69
2023/03/21 08:09:55;;;;;;;8.93;5.35;;;9.20;99.90;;;;;;5039106;28;20047;-70
2023/03/21 08:12:20;;;;;;;11.80;6.25;;;9.20;99.90;;;;;;5041794;28;20517;-68
2023/03/21 08:14:46;;;;;;;10.88;5.75;;;9.20;99.90;;;;;;5035357;28;20036;-71
2023/03/21 08:17:12;;;;;;;9.13;5.28;;;9.20;99.90;;;;;;5047144;28;20043;-68
2023/03/21 08:19:37;;;;;;;10.75;5.32;;;9.30;99.90;;;;;;5037254;28;20063;-70
2023/03/21 08:22:04;;;;;;;15.40;6.45;;;9.30;99.90;;;;;;5019403;28;20141;-70
2023/03/21 08:24:30;;;;;;;13.98;6.88;;;9.20;99.90;;;;;;5056582;28;20037;-71
2023/03/21 08:26:56;;;;;;;14.05;6.25;;;9.20;99.90;;;;;;5041214;28;20374;-68
2023/03/21 08:29:23;;;;;;;13.18;6.25;;;9.30;99.90;;;;;;5036920;28;20072;-67
2023/03/21 08:31:49;;;;;;;14.00;6.63;;;9.30;99.90;;;;;;5036751;28;20501;-69
2023/03/21 08:34:16;;;;;;;14.50;7.20;;;9.30;99.90;;;;;;5020667;28;20029;-68
2023/03/21 08:36:42;;;;;;;12.20;6.25;;;9.30;99.90;;;;;;5020608;28;20037;-69
2023/03/21 08:39:08;;;;;;;12.95;6.97;;;9.20;99.90;;;;;;5050808;28;20047;-74
2023/03/21 08:41:36;;;;;;;12.32;6.65;;;9.20;99.90;;;;;;5044236;28;20516;-67
2023/03/21 08:44:03;;;;;;;12.43;7.43;;;9.20;99.90;;;;;;5020586;28;20040;-70
2023/03/21 08:46:29;;;;;;;17.13;7.35;;;9.30;99.90;;;;;;5050480;28;20041;-71
2023/03/21 08:48:55;;;;;;;13.98;6.35;;;9.20;99.90;;;;;;5051784;28;20084;-68
2023/03/21 08:51:20;;;;;;;15.05;7.13;;;9.30;99.90;;;;;;5052930;28;20500;-69
2023/03/21 08:53:49;;;;;;;15.90;7.13;;;9.30;99.90;;;;;;5043763;28;20212;-67
2023/03/21 08:56:16;;;;;;;13.50;6.30;;;9.40;99.90;;;;;;5051369;28;20049;-68
2023/03/21 08:58:43;;;;;;;16.08;7.82;;;9.30;99.90;;;;;;5035916;28;20160;-70
2023/03/21 09:01:10;;;;;;;12.75;6.55;;;9.30;99.90;;;;;;5036793;28;20083;-68
2023/03/21 09:03:38;;;;;;;13.98;7.32;;;9.40;99.90;;;;;;5045911;28;20354;-68
2023/03/21 09:06:04;;;;;;;16.63;7.32;;;9.40;99.90;;;;;;5016054;28;20107;-70
2023/03/21 09:08:30;;;;;;;14.63;6.93;;;9.30;99.90;;;;;;5044405;28;20060;-69
2023/03/21 09:10:56;;;;;;;15.43;7.60;;;9.30;99.90;;;;;;5032699;28;20034;-70
2023/03/21 09:13:22;;;;;;;13.73;7.05;;;9.40;99.90;;;;;;5012774;28;20041;-69
2023/03/21 09:15:48;;;;;;;15.43;7.28;;;9.30;99.90;;;;;;5038257;28;20489;-70
2023/03/21 09:18:21;;;;;;;16.77;7.53;;;9.40;99.90;;;;;;5040830;28;20049;-67
2023/03/21 09:20:47;;;;;;;17.35;8.18;;;9.40;99.90;;;;;;5050542;28;20051;-69
2023/03/21 09:23:13;;;;;;;15.43;7.57;;;9.40;99.90;;;;;;5038626;28;20618;-68
2023/03/21 09:25:40;;;;;;;17.08;7.78;;;9.40;99.90;;;;;;5019933;28;20124;-67
2023/03/21 09:28:06;;;;;;;16.10;7.75;;;9.50;99.90;;;;;;5042380;28;20397;-67
2023/03/21 09:30:34;;;;;;;15.77;7.75;;;9.30;99.90;;;;;;5042398;28;20056;-69
2023/03/21 09:33:02;;;;;;;16.23;7.30;;;9.30;99.90;;;;;;5051273;28;20067;-67
2023/03/21 09:35:28;;;;;;;14.85;7.75;;;9.40;99.90;;;;;;5052963;28;20036;-66
2023/03/21 09:37:56;;;;;;;22.75;10.00;;;9.40;99.90;;;;;;5052683;28;20207;-68
2023/03/21 09:40:51;;;;;;;18.90;9.55;;;9.30;99.90;;;;;;5051996;28;20032;-66
2023/03/21 09:43:39;;;;;;;22.55;9.82;;;9.40;99.90;;;;;;5020322;28;20053;-68
2023/03/21 09:46:26;;;;;;;23.05;11.13;;;9.30;99.90;;;;;;5044640;28;20049;-66
2023/03/21 09:49:01;;;;;;;17.48;9.30;;;9.30;99.90;;;;;;5045953;28;20041;-69
2023/03/21 09:51:40;;;;;;;21.55;10.25;;;9.30;99.90;;;;;;5048651;28;20087;-67
2023/03/21 09:54:26;;;;;;;19.27;10.18;;;9.30;99.90;;;;;;5048562;28;20041;-67
2023/03/21 09:56:55;;;;;;;23.80;10.20;;;9.30;99.90;;;;;;5030947;28;20030;-68
2023/03/21 09:59:38;;;;;;;23.02;10.68;;;9.30;99.90;;;;;;5027274;28;20041;-67
2023/03/21 10:02:34;;;;;;;20.65;11.13;;;9.40;99.90;;;;;;5024402;28;20527;-67
2023/03/21 10:05:07;;;;;;;22.75;10.15;;;9.40;99.90;;;;;;5042592;28;20100;-67
2023/03/21 10:07:40;;;;;;;18.02;10.45;;;9.30;99.90;;;;;;5034365;28;20055;-65
2023/03/21 10:10:11;;;;;;;20.05;9.63;;;9.30;99.90;;;;;;5019586;28;20171;-67
2023/03/21 10:12:37;;;;;;;17.85;9.32;;;9.20;99.90;;;;;;5039625;28;20481;-68
2023/03/21 10:15:04;;;;;;;24.80;10.45;;;9.20;99.90;;;;;;5047080;28;20060;-68
2023/03/21 10:17:39;;;;;;;18.98;9.85;;;9.20;99.90;;;;;;5038316;28;20586;-66
2023/03/21 10:20:23;;;;;;;24.23;9.75;;;9.20;99.90;;;;;;5039081;28;20106;-67
2023/03/21 10:22:54;;;;;;;24.58;10.32;;;9.30;99.90;;;;;;5033178;28;20041;-66
2023/03/21 10:25:35;;;;;;;19.40;9.95;;;9.20;99.90;;;;;;5041460;28;20037;-67
2023/03/21 10:28:04;;;;;;;18.13;9.35;;;9.30;99.90;;;;;;5047820;28;20136;-67
2023/03/21 10:30:41;;;;;;;21.13;10.48;;;9.30;99.90;;;;;;5031042;28;20038;-67
2023/03/21 10:33:13;;;;;;;21.88;10.10;;;9.20;99.90;;;;;;5041402;28;20036;-70
2023/03/21 10:35:42;;;;;;;21.48;9.88;;;9.30;99.90;;;;;;5050785;28;20060;-68
2023/03/21 10:38:14;;;;;;;17.97;10.37;;;9.20;99.90;;;;;;5051714;28;20052;-66
2023/03/21 10:40:40;;;;;;;21.75;10.35;;;9.40;99.90;;;;;;5038891;28;20291;-67
2023/03/21 10:43:25;;;;;;;23.13;9.95;;;9.40;99.90;;;;;;5031709;28;20386;-67
2023/03/21 10:45:52;;;;;;;22.17;9.68;;;9.40;99.90;;;;;;5031718;28;20362;-67
2023/03/21 10:48:19;;;;;;;21.50;9.75;;;9.40;99.90;;;;;;5033960;28;20534;-68
2023/03/21 10:50:48;;;;;;;19.30;8.55;;;9.40;99.90;;;;;;5034894;28;20044;-67
2023/03/21 10:53:21;;;;;;;20.27;9.13;;;9.40;99.90;;;;;;5050113;28;20033;-69
2023/03/21 10:55:50;;;;;;;23.38;9.70;;;9.30;99.90;;;;;;5051102;28;20120;-68
2023/03/21 10:58:26;;;;;;;15.63;8.60;;;9.30;99.90;;;;;;5031340;28;20120;-69
2023/03/21 11:01:04;;;;;;;18.30;8.65;;;9.50;99.90;;;;;;5044235;28;20084;-70
2023/03/21 11:03:42;;;;;;;20.15;9.52;;;9.50;99.90;;;;;;5031650;28;20049;-65
2023/03/21 11:06:15;;;;;;;18.48;9.20;;;9.50;99.90;;;;;;5031071;28;20108;-68
2023/03/21 11:08:47;;;;;;;20.15;10.18;;;9.60;99.90;;;;;;5045765;28;20484;-66
2023/03/21 11:11:32;;;;;;;20.65;9.55;;;9.60;99.90;;;;;;5019534;28;20434;-69
2023/03/21 11:14:00;;;;;;;19.77;9.30;;;9.50;99.90;;;;;;5037439;28;20040;-68
2023/03/21 11:16:31;;;;;;;21.52;9.40;;;9.70;99.90;;;;;;5032919;28;20033;-68
2023/03/21 11:19:01;;;;;;;20.38;9.68;;;9.80;99.90;;;;;;5045681;28;20041;-65
2023/03/21 11:21:27;;;;;;;18.45;9.32;;;9.70;99.90;;;;;;5038674;28;20060;-67
2023/03/21 11:23:55;;;;;;;22.10;10.13;;;9.70;99.90;;;;;;5041048;28;20044;-66
2023/03/21 11:26:31;;;;;;;20.30;9.90;;;9.80;99.90;;;;;;5032644;28;20041;-68
2023/03/21 11:28:57;;;;;;;18.25;9.07;;;9.90;99.90;;;;;;5030645;28;20440;-66
2023/03/21 11:31:37;;;;;;;21.65;10.02;;;10.00;99.90;;;;;;5029987;28;20049;-69
2023/03/21 11:34:06;;;;;;;17.77;10.05;;;9.90;99.90;;;;;;5034348;28;20500;-67
2023/03/21 11:36:39;;;;;;;21.05;10.20;;;10.00;99.90;;;;;;5031018;28;20045;-67
2023/03/21 11:39:08;;;;;;;21.73;9.55;;;10.00;99.90;;;;;;5037009;28;20041;-66
2023/03/21 11:41:33;;;;;;;22.13;10.10;;;10.20;99.90;;;;;;5048907;28;20098;-65
2023/03/21 11:44:00;;;;;;;18.98;9.60;;;10.10;99.90;;;;;;5047200;28;20443;-66
2023/03/21 11:46:28;;;;;;;24.42;10.23;;;10.10;99.90;;;;;;5049898;28;20468;-66
2023/03/21 11:48:55;;;;;;;23.15;9.18;;;10.20;99.90;;;;;;5040303;28;20492;-65
2023/03/21 11:51:42;;;;;;;21.15;10.23;;;10.30;99.90;;;;;;5046165;28;20086;-66
2023/03/21 11:54:20;;;;;;;16.55;8.40;;;10.30;99.90;;;;;;5044441;28;20088;-71
2023/03/21 11:56:50;;;;;;;21.05;9.68;;;10.30;99.90;;;;;;5037102;28;20037;-69
2023/03/21 11:59:44;;;;;;;17.00;9.60;;;10.30;99.90;;;;;;5036255;28;22331;-67
2023/03/21 12:02:39;;;;;;;21.42;8.73;;;10.20;99.90;;;;;;5035156;28;20045;-68
2023/03/21 12:05:18;;;;;;;14.45;7.55;;;10.20;99.90;;;;;;5041514;28;20056;-68
2023/03/21 12:08:06;;;;;;;14.18;7.63;;;10.10;99.90;;;;;;5036698;28;20057;-67
2023/03/21 12:10:53;;;;;;;15.70;7.68;;;10.10;99.90;;;;;;5017331;28;20050;-67
2023/03/21 12:13:43;;;;;;;15.90;7.28;;;10.10;99.90;;;;;;5037234;28;20556;-67
2023/03/21 12:16:33;;;;;;;12.02;6.50;;;10.00;99.90;;;;;;5046029;28;20036;-67
2023/03/21 12:19:11;;;;;;;13.82;6.78;;;10.10;99.90;;;;;;5050663;28;20075;-66
2023/03/21 12:21:43;;;;;;;16.45;7.70;;;10.20;99.90;;;;;;5045899;28;20041;-67
2023/03/21 12:24:25;;;;;;;12.45;6.53;;;10.20;99.90;;;;;;5049050;28;20065;-67
2023/03/21 12:27:24;;;;;;;11.70;6.53;;;10.40;99.90;;;;;;5046314;28;20381;-67
2023/03/21 12:30:22;;;;;;;15.65;6.80;;;10.20;99.90;;;;;;5041883;28;20053;-66
2023/03/21 12:33:15;;;;;;;10.95;5.75;;;10.40;99.90;;;;;;5051059;28;20041;-68
2023/03/21 12:36:05;;;;;;;10.35;5.70;;;10.30;99.90;;;;;;5045306;28;20044;-69
2023/03/21 12:38:53;;;;;;;;;;;10.30;99.90;;;;;;5041718;28;20045;-69
2023/03/21 12:41:24;;;;;;;12.52;5.40;;;10.30;99.90;;;;;;5044210;28;19975;-69
2023/03/21 12:44:04;;;;;;;11.95;4.95;;;10.30;99.90;;;;;;5031496;28;20041;-68
2023/03/21 12:46:58;;;;;;;11.80;5.68;;;10.10;99.90;;;;;;5034673;28;20047;-68
2023/03/21 12:49:33;;;;;;;8.23;4.45;;;10.10;99.90;;;;;;5038919;28;20080;-69
2023/03/21 12:52:10;;;;;;;9.10;5.22;;;10.00;99.90;;;;;;5050041;28;20204;-69
2023/03/21 12:54:41;;;;;;;11.38;5.38;;;10.00;99.90;;;;;;5040529;28;20440;-71
2023/03/21 12:57:14;;;;;;;9.77;5.03;;;10.00;99.90;;;;;;5045826;28;20124;-68
2023/03/21 12:59:47;;;;;;;11.60;5.65;;;10.10;99.90;;;;;;5038055;28;20064;-70
2023/03/21 13:02:23;;;;;;;10.63;5.43;;;10.10;99.90;;;;;;5041082;28;20033;-69